createdAt,value
2023-04-01T00:01:17.731Z,99673.95
2023-04-01T00:03:46.542Z,99671.70
2023-04-01T00:06:17.221Z,99668.69
2023-04-01T00:08:46.108Z,99667.71
2023-04-01T00:11:15.990Z,99654.34
2023-04-01T00:13:44.936Z,99666.23
2023-04-01T00:16:21.752Z,99662.87
2023-04-01T00:18:51.819Z,99655.36
2023-04-01T00:21:21.772Z,99654.04
2023-04-01T00:23:51.901Z,99649.83
2023-04-01T00:26:22.589Z,99650.82
2023-04-01T00:28:51.436Z,99648.24
2023-04-01T00:31:20.083Z,99652.20
2023-04-01T00:33:49.078Z,99652.45
2023-04-01T00:36:20.463Z,99648.13
2023-04-01T00:38:49.034Z,99650.66
2023-04-01T00:41:18.189Z,99655.50
2023-04-01T00:43:49.221Z,99645.88
2023-04-01T00:46:17.564Z,99655.13
2023-04-01T00:48:52.602Z,99645.61
2023-04-01T00:51:28.951Z,99655.89
2023-04-01T00:54:02.857Z,99661.95
2023-04-01T00:56:38.018Z,99661.72
2023-04-01T00:59:12.056Z,99655.88
2023-04-01T01:01:40.526Z,99660.02
2023-04-01T01:04:21.607Z,99656.62
2023-04-01T01:07:00.972Z,99646.85
2023-04-01T01:09:35.150Z,99652.99
2023-04-01T01:12:15.151Z,99660.55
2023-04-01T01:15:01.328Z,99656.64
2023-04-01T01:17:51.405Z,99658.02
2023-04-01T01:20:34.802Z,99658.08
2023-04-01T01:23:30.088Z,99659.70
2023-04-01T01:26:35.637Z,99660.27
2023-04-01T01:29:43.241Z,99651.34
2023-04-01T01:32:26.749Z,99659.31
2023-04-01T01:35:10.991Z,99659.27
2023-04-01T01:37:42.219Z,99657.45
2023-04-01T01:40:12.751Z,99646.71
2023-04-01T01:42:46.944Z,99658.73
2023-04-01T01:45:18.973Z,99657.27
2023-04-01T01:47:50.130Z,99657.37
2023-04-01T01:50:19.397Z,99659.52
2023-04-01T01:52:47.642Z,99656.59
2023-04-01T01:55:35.015Z,99652.55
2023-04-01T01:58:21.321Z,99653.59
2023-04-01T02:00:57.367Z,99646.35
2023-04-01T02:03:28.180Z,99653.77
2023-04-01T02:06:00.651Z,99653.73
2023-04-01T02:08:46.496Z,99643.45
2023-04-01T02:11:20.194Z,99652.54
2023-04-01T02:13:58.104Z,99652.42
2023-04-01T02:16:37.479Z,99654.57
2023-04-01T02:19:11.433Z,99656.23
2023-04-01T02:21:42.181Z,99657.50
2023-04-01T02:24:15.663Z,99657.05
2023-04-01T02:26:45.748Z,99659.61
2023-04-01T02:29:14.995Z,99648.96
2023-04-01T02:31:44.071Z,99646.16
2023-04-01T02:34:13.184Z,99659.64
2023-04-01T02:36:41.269Z,99661.72
2023-04-01T02:39:10.329Z,99663.58
2023-04-01T02:41:43.128Z,99659.40
2023-04-01T02:44:13.044Z,99665.64
2023-04-01T02:46:41.848Z,99653.04
2023-04-01T02:49:10.522Z,99666.70
2023-04-01T02:51:38.916Z,99668.71
2023-04-01T02:54:07.082Z,99664.63
2023-04-01T02:56:35.392Z,99667.77
2023-04-01T02:59:03.548Z,99672.78
2023-04-01T03:01:31.738Z,99672.73
2023-04-01T03:03:59.897Z,99675.16
2023-04-01T03:06:28.038Z,99680.42
2023-04-01T03:08:56.244Z,99673.65
2023-04-01T03:11:24.700Z,99676.78
2023-04-01T03:13:52.856Z,99680.42
2023-04-01T03:16:21.709Z,99679.38
2023-04-01T03:18:53.705Z,99682.01
2023-04-01T03:21:26.132Z,99681.03
2023-04-01T03:23:54.351Z,99688.89
2023-04-01T03:26:22.625Z,99685.41
2023-04-01T03:28:51.618Z,99688.78
2023-04-01T03:31:21.677Z,99690.48
2023-04-01T03:33:52.622Z,99690.61
2023-04-01T03:36:21.205Z,99691.15
2023-04-01T03:38:49.549Z,99690.05
2023-04-01T03:41:20.790Z,99676.77
2023-04-01T03:43:49.074Z,99699.13
2023-04-01T03:46:21.761Z,99698.45
2023-04-01T03:48:50.338Z,99706.48
2023-04-01T03:51:18.604Z,99710.05
2023-04-01T03:53:46.986Z,99712.25
2023-04-01T03:56:15.126Z,99711.14
2023-04-01T03:58:43.467Z,99714.91
2023-04-01T04:01:16.672Z,99716.25
2023-04-01T04:03:45.501Z,99717.55
2023-04-01T04:06:14.973Z,99721.27
2023-04-01T04:08:43.902Z,99720.54
2023-04-01T04:11:13.537Z,99720.74
2023-04-01T04:13:44.083Z,99724.02
2023-04-01T04:16:12.727Z,99727.14
2023-04-01T04:18:44.436Z,99729.21
2023-04-01T04:21:14.994Z,99733.68
2023-04-01T04:23:44.083Z,99737.81
2023-04-01T04:26:14.942Z,99740.94
2023-04-01T04:28:43.831Z,99745.19
2023-04-01T04:31:12.148Z,99748.07
2023-04-01T04:33:44.824Z,99740.58
2023-04-01T04:36:14.862Z,99747.25
2023-04-01T04:38:43.139Z,99751.19
2023-04-01T04:41:13.789Z,99754.31
2023-04-01T04:43:42.811Z,99753.82
2023-04-01T04:46:11.702Z,99751.43
2023-04-01T04:48:40.190Z,99758.85
2023-04-01T04:51:08.402Z,99755.69
2023-04-01T04:53:36.695Z,99745.15
2023-04-01T04:56:04.998Z,99760.44
2023-04-01T04:58:49.602Z,99754.72
2023-04-01T05:01:21.534Z,99765.30
2023-04-01T05:03:49.786Z,99758.36
2023-04-01T05:06:21.535Z,99761.69
2023-04-01T05:08:51.472Z,99764.65
2023-04-01T05:11:20.569Z,99768.10
2023-04-01T05:13:48.986Z,99771.85
2023-04-01T05:16:20.388Z,99771.41
2023-04-01T05:18:49.070Z,99772.02
2023-04-01T05:21:17.467Z,99768.60
2023-04-01T05:23:45.981Z,99773.06
2023-04-01T05:26:15.668Z,99773.53
2023-04-01T05:28:44.102Z,99773.70
2023-04-01T05:31:12.422Z,99779.33
2023-04-01T05:33:42.556Z,99782.94
2023-04-01T05:36:13.507Z,99786.90
2023-04-01T05:38:44.223Z,99788.48
2023-04-01T05:41:14.709Z,99789.54
2023-04-01T05:43:45.770Z,99792.02
2023-04-01T05:46:34.183Z,99790.41
2023-04-01T05:49:12.058Z,99793.65
2023-04-01T05:51:40.352Z,99796.08
2023-04-01T05:54:08.525Z,99786.99
2023-04-01T05:56:36.902Z,99795.27
2023-04-01T05:59:05.235Z,99794.95
2023-04-01T06:01:33.354Z,99798.39
2023-04-01T06:04:06.113Z,99799.08
2023-04-01T06:06:39.676Z,99803.27
2023-04-01T06:09:36.315Z,99803.92
2023-04-01T06:12:16.928Z,99805.56
2023-04-01T06:15:13.102Z,99806.29
2023-04-01T06:18:03.724Z,99807.75
2023-04-01T06:21:05.056Z,99810.61
2023-04-01T06:23:42.246Z,99814.29
2023-04-01T06:26:11.149Z,99816.17
2023-04-01T06:28:46.453Z,99804.38
2023-04-01T06:31:47.047Z,99818.15
2023-04-01T06:34:57.364Z,99820.52
2023-04-01T06:37:50.679Z,99819.17
2023-04-01T06:40:49.648Z,99827.36
2023-04-01T06:43:36.667Z,99829.63
2023-04-01T06:46:48.498Z,99830.32
2023-04-01T06:49:34.990Z,99833.73
2023-04-01T06:53:00.742Z,99824.14
2023-04-01T06:56:00.810Z,99839.20
2023-04-01T06:58:50.586Z,99838.63
2023-04-01T07:01:24.137Z,99839.48
2023-04-01T07:04:00.556Z,99842.39
2023-04-01T07:06:55.226Z,99842.40
2023-04-01T07:09:31.814Z,99846.89
2023-04-01T07:12:35.143Z,99843.87
2023-04-01T07:15:42.256Z,99846.97
2023-04-01T07:18:22.893Z,99847.21
2023-04-01T07:20:53.088Z,99846.52
2023-04-01T07:23:29.541Z,99849.84
2023-04-01T07:26:21.951Z,99853.38
2023-04-01T07:29:12.854Z,99850.16
2023-04-01T07:31:52.110Z,99863.58
2023-04-01T07:34:40.608Z,99864.20
2023-04-01T07:37:13.144Z,99864.04
2023-04-01T07:40:12.194Z,99867.93
2023-04-01T07:42:47.114Z,99858.30
2023-04-01T07:45:30.851Z,99871.02
2023-04-01T07:48:08.148Z,99880.25
2023-04-01T07:50:42.266Z,99881.30
2023-04-01T07:53:29.779Z,99880.01
2023-04-01T07:56:05.057Z,99881.23
2023-04-01T07:58:46.426Z,99888.61
2023-04-01T08:01:57.669Z,99889.30
2023-04-01T08:04:45.059Z,99887.13
2023-04-01T08:07:46.536Z,99889.17
2023-04-01T08:10:40.063Z,99893.79
2023-04-01T08:13:43.501Z,99897.60
2023-04-01T08:16:53.347Z,99900.92
2023-04-01T08:19:50.328Z,99903.98
2023-04-01T08:22:28.746Z,99909.08
2023-04-01T08:25:03.715Z,99909.98
2023-04-01T08:27:45.428Z,99912.52
2023-04-01T08:30:27.706Z,99912.80
2023-04-01T08:33:12.207Z,99912.42
2023-04-01T08:35:51.487Z,99911.88
2023-04-01T08:38:29.049Z,99914.52
2023-04-01T08:41:23.322Z,99917.02
2023-04-01T08:44:36.791Z,99917.20
2023-04-01T08:47:32.578Z,99917.31
2023-04-01T08:50:26.167Z,99922.83
2023-04-01T08:53:26.083Z,99919.45
2023-04-01T08:56:12.237Z,99923.70
2023-04-01T08:59:14.431Z,99923.56
2023-04-01T09:02:20.490Z,99924.45
2023-04-01T09:05:27.500Z,99924.83
2023-04-01T09:08:06.661Z,99927.55
2023-04-01T09:10:42.000Z,99929.19
2023-04-01T09:13:50.518Z,99929.80
2023-04-01T09:16:21.469Z,99928.93
2023-04-01T09:18:55.483Z,99929.06
2023-04-01T09:22:11.595Z,99932.68
2023-04-01T09:24:42.700Z,99939.61
2023-04-01T09:27:32.005Z,99944.09
2023-04-01T09:30:10.660Z,99950.08
2023-04-01T09:33:11.052Z,99954.79
2023-04-01T09:35:49.567Z,99959.46
2023-04-01T09:38:24.127Z,99950.30
2023-04-01T09:40:58.644Z,99965.84
2023-04-01T09:44:21.172Z,99964.23
2023-04-01T09:47:31.536Z,99978.04
2023-04-01T09:50:34.252Z,99977.66
2023-04-01T09:53:17.407Z,99984.65
2023-04-01T09:56:00.386Z,99986.23
2023-04-01T09:58:28.488Z,99986.43
2023-04-01T10:01:34.200Z,99996.70
2023-04-01T10:04:24.383Z,100000.04
2023-04-01T10:07:15.954Z,100001.66
2023-04-01T10:10:21.548Z,100005.35
2023-04-01T10:13:24.281Z,100001.04
2023-04-01T10:16:11.923Z,100011.52
2023-04-01T10:19:05.173Z,100017.56
2023-04-01T10:21:55.486Z,100024.02
2023-04-01T10:24:23.528Z,100027.77
2023-04-01T10:27:08.376Z,100029.94
2023-04-01T10:30:13.422Z,100035.83
2023-04-01T10:33:24.542Z,100029.23
2023-04-01T10:36:31.337Z,100046.91
2023-04-01T10:39:19.224Z,100039.86
2023-04-01T10:41:47.804Z,100049.66
2023-04-01T10:45:00.903Z,100054.95
2023-04-01T10:48:14.549Z,100057.33
2023-04-01T10:51:00.948Z,100057.06
2023-04-01T10:53:57.553Z,100059.86
2023-04-01T10:56:41.500Z,100060.95
2023-04-01T10:59:33.280Z,100065.95
2023-04-01T11:02:52.095Z,100068.27
2023-04-01T11:06:10.525Z,100072.30
2023-04-01T11:09:09.900Z,100072.20
2023-04-01T11:11:56.905Z,100073.68
2023-04-01T11:14:34.137Z,100077.04
2023-04-01T11:17:08.291Z,100081.64
2023-04-01T11:19:45.140Z,100084.77
2023-04-01T11:22:38.786Z,100088.76
2023-04-01T11:25:44.584Z,100084.13
2023-04-01T11:28:46.305Z,100094.64
2023-04-01T11:31:48.932Z,100094.20
2023-04-01T11:34:49.510Z,100100.19
2023-04-01T11:37:28.839Z,100094.59
2023-04-01T11:40:44.259Z,100097.77
2023-04-01T11:43:38.551Z,100097.54
2023-04-01T11:46:44.683Z,100101.46
2023-04-01T11:49:26.693Z,100094.88
2023-04-01T11:52:10.185Z,100096.18
2023-04-01T11:55:11.898Z,100109.25
2023-04-01T11:58:14.229Z,100094.54
2023-04-01T12:00:45.022Z,100112.80
2023-04-01T12:03:42.616Z,100116.70
2023-04-01T12:06:31.336Z,100119.95
2023-04-01T12:09:21.162Z,100125.08
2023-04-01T12:12:12.516Z,100120.83
2023-04-01T12:15:01.543Z,100125.05
2023-04-01T12:17:43.998Z,100130.75
2023-04-01T12:20:16.540Z,100129.91
2023-04-01T12:22:54.880Z,100131.95
2023-04-01T12:25:38.077Z,100133.24
2023-04-01T12:28:12.122Z,100138.05
2023-04-01T12:30:46.127Z,100139.77
2023-04-01T12:33:45.498Z,100140.95
2023-04-01T12:36:32.312Z,100147.64
2023-04-01T12:39:00.432Z,100147.31
2023-04-01T12:41:44.239Z,100152.50
2023-04-01T12:44:12.211Z,100159.54
2023-04-01T12:46:58.637Z,100163.42
2023-04-01T12:50:04.176Z,100168.30
2023-04-01T12:52:50.906Z,100175.73
2023-04-01T12:55:51.762Z,100178.07
2023-04-01T12:58:28.862Z,100183.71
2023-04-01T13:01:09.000Z,100188.20
2023-04-01T13:03:45.639Z,100188.53
2023-04-01T13:06:42.473Z,100191.08
2023-04-01T13:09:18.347Z,100182.59
2023-04-01T13:12:08.484Z,100198.73
2023-04-01T13:14:55.449Z,100203.98
2023-04-01T13:17:38.438Z,100210.45
2023-04-01T13:20:22.024Z,100213.82
2023-04-01T13:23:20.433Z,100217.17
2023-04-01T13:26:14.887Z,100221.28
2023-04-01T13:29:00.411Z,100223.44
2023-04-01T13:31:57.123Z,100227.91
2023-04-01T13:34:27.925Z,100226.63
2023-04-01T13:37:19.383Z,100230.59
2023-04-01T13:40:17.034Z,100234.23
2023-04-01T13:42:51.676Z,100241.27
2023-04-01T13:45:30.569Z,100250.88
2023-04-01T13:48:28.276Z,100253.03
2023-04-01T13:51:11.345Z,100253.77
2023-04-01T13:54:10.601Z,100257.59
2023-04-01T13:56:50.108Z,100259.79
2023-04-01T13:59:36.219Z,100250.00
2023-04-01T14:02:42.240Z,100266.33
2023-04-01T14:05:24.384Z,100264.27
2023-04-01T14:08:10.585Z,100269.02
2023-04-01T14:11:08.422Z,100273.14
2023-04-01T14:13:47.749Z,100271.77
2023-04-01T14:16:35.012Z,100273.08
2023-04-01T14:19:21.242Z,100270.29
2023-04-01T14:22:08.242Z,100275.83
2023-04-01T14:24:51.587Z,100278.78
2023-04-01T14:27:56.799Z,100282.67
2023-04-01T14:30:33.812Z,100282.65
2023-04-01T14:33:30.201Z,100283.31
2023-04-01T14:36:28.440Z,100284.63
2023-04-01T14:39:17.297Z,100287.95
2023-04-01T14:42:11.889Z,100288.82
2023-04-01T14:44:54.666Z,100296.04
2023-04-01T14:47:34.873Z,100297.93
2023-04-01T14:50:28.416Z,100302.08
2023-04-01T14:53:08.567Z,100309.34
2023-04-01T14:55:42.609Z,100318.53
2023-04-01T14:58:16.189Z,100325.35
2023-04-01T15:00:47.349Z,100326.61
2023-04-01T15:03:21.381Z,100326.52
2023-04-01T15:05:52.392Z,100329.24
2023-04-01T15:08:53.230Z,100329.33
2023-04-01T15:11:40.551Z,100332.54
2023-04-01T15:14:47.042Z,100338.45
2023-04-01T15:17:31.105Z,100341.73
2023-04-01T15:20:20.752Z,100340.69
2023-04-01T15:23:11.371Z,100345.77
2023-04-01T15:25:39.408Z,100351.50
2023-04-01T15:28:26.126Z,100357.76
2023-04-01T15:31:28.483Z,100359.14
2023-04-01T15:33:59.170Z,100366.55
2023-04-01T15:36:54.520Z,100361.75
2023-04-01T15:39:58.575Z,100366.16
2023-04-01T15:43:06.175Z,100379.34
2023-04-01T15:45:43.649Z,100390.37
2023-04-01T15:48:25.032Z,100390.07
2023-04-01T15:50:57.736Z,100395.97
2023-04-01T15:53:42.940Z,100397.95
2023-04-01T15:56:30.643Z,100404.64
2023-04-01T15:59:15.627Z,100402.77
2023-04-01T16:01:49.155Z,100395.98
2023-04-01T16:04:32.270Z,100407.21
2023-04-01T16:07:29.005Z,100413.65
2023-04-01T16:10:03.735Z,100416.50
2023-04-01T16:12:53.640Z,100427.55
2023-04-01T16:15:58.394Z,100433.88
2023-04-01T16:18:38.599Z,100438.39
2023-04-01T16:21:21.980Z,100441.52
2023-04-01T16:23:56.963Z,100450.24
2023-04-01T16:26:40.372Z,100450.45
2023-04-01T16:29:49.277Z,100455.39
2023-04-01T16:32:32.483Z,100464.92
2023-04-01T16:35:06.202Z,100471.73
2023-04-01T16:38:05.016Z,100476.14
2023-04-01T16:40:45.467Z,100476.23
2023-04-01T16:43:44.881Z,100479.46
2023-04-01T16:46:30.894Z,100484.46
2023-04-01T16:49:49.297Z,100489.52
2023-04-01T16:52:32.596Z,100492.63
2023-04-01T16:55:18.088Z,100486.73
2023-04-01T16:57:58.137Z,100499.32
2023-04-01T17:00:41.631Z,100507.63
2023-04-01T17:03:22.844Z,100502.12
2023-04-01T17:06:01.475Z,100514.21
2023-04-01T17:08:49.972Z,100523.09
2023-04-01T17:11:28.490Z,100527.58
2023-04-01T17:14:03.019Z,100535.73
2023-04-01T17:16:51.638Z,100539.58
2023-04-01T17:19:46.035Z,100545.04
2023-04-01T17:22:28.256Z,100549.41
2023-04-01T17:25:19.444Z,100558.05
2023-04-01T17:27:54.106Z,100553.15
2023-04-01T17:30:55.107Z,100568.30
2023-04-01T17:33:32.123Z,100569.73
2023-04-01T17:36:31.176Z,100572.97
2023-04-01T17:39:12.493Z,100576.89
2023-04-01T17:41:58.559Z,100578.81
2023-04-01T17:44:39.233Z,100580.32
2023-04-01T17:47:28.359Z,100587.38
2023-04-01T17:50:02.390Z,100590.41
2023-04-01T17:52:36.817Z,100591.10
2023-04-01T17:55:46.478Z,100596.31
2023-04-01T17:58:23.621Z,100599.16
2023-04-01T18:00:57.717Z,100600.54
2023-04-01T18:03:35.024Z,100604.04
2023-04-01T18:06:18.987Z,100604.98
2023-04-01T18:08:47.000Z,100606.69
2023-04-01T18:11:24.125Z,100611.75
2023-04-01T18:14:11.232Z,100614.61
2023-04-01T18:16:59.091Z,100615.40
2023-04-01T18:19:52.560Z,100621.11
2023-04-01T18:22:39.471Z,100621.21
2023-04-01T18:25:38.073Z,100627.77
2023-04-01T18:28:28.785Z,100635.55
2023-04-01T18:31:03.031Z,100634.01
2023-04-01T18:33:43.294Z,100620.89
2023-04-01T18:36:21.862Z,100643.70
2023-04-01T18:39:14.692Z,100650.27
2023-04-01T18:42:12.052Z,100653.58
2023-04-01T18:44:47.863Z,100646.48
2023-04-01T18:47:56.480Z,100660.40
2023-04-01T18:50:54.423Z,100660.89
2023-04-01T18:53:37.345Z,100669.16
2023-04-01T18:56:13.930Z,100666.64
2023-04-01T18:58:46.072Z,100672.70
2023-04-01T19:01:34.680Z,100672.42
2023-04-01T19:04:16.916Z,100670.74
2023-04-01T19:06:58.449Z,100672.81
2023-04-01T19:09:47.815Z,100678.56
2023-04-01T19:12:43.927Z,100682.16
2023-04-01T19:15:31.428Z,100673.65
2023-04-01T19:18:23.860Z,100686.66
2023-04-01T19:21:10.591Z,100693.39
2023-04-01T19:24:15.740Z,100694.02
2023-04-01T19:26:53.099Z,100696.25
2023-04-01T19:29:58.999Z,100700.59
2023-04-01T19:32:29.857Z,100701.02
2023-04-01T19:34:57.979Z,100705.73
2023-04-01T19:37:42.471Z,100712.04
2023-04-01T19:40:49.025Z,100712.67
2023-04-01T19:43:38.840Z,100723.23
2023-04-01T19:46:34.816Z,100712.46
2023-04-01T19:49:09.021Z,100727.20
2023-04-01T19:52:18.520Z,100732.55
2023-04-01T19:54:56.266Z,100741.84
2023-04-01T19:57:53.007Z,100744.23
2023-04-01T20:00:33.410Z,100747.12
2023-04-01T20:03:27.502Z,100746.96
2023-04-01T20:06:30.960Z,100753.55
2023-04-01T20:09:04.855Z,100758.77
2023-04-01T20:11:43.518Z,100755.45
2023-04-01T20:14:41.158Z,100768.05
2023-04-01T20:17:27.786Z,100771.98
2023-04-01T20:20:12.198Z,100771.98
2023-04-01T20:22:46.743Z,100776.85
2023-04-01T20:25:21.440Z,100776.95
2023-04-01T20:27:55.619Z,100782.69
2023-04-01T20:30:27.818Z,100784.10
2023-04-01T20:33:01.722Z,100786.95
2023-04-01T20:35:33.236Z,100787.73
2023-04-01T20:38:10.630Z,100792.50
2023-04-01T20:40:46.224Z,100791.87
2023-04-01T20:43:42.748Z,100784.88
2023-04-01T20:47:03.697Z,100799.55
2023-04-01T20:49:36.283Z,100804.95
2023-04-01T20:52:27.276Z,100799.55
2023-04-01T20:54:58.069Z,100818.14
2023-04-01T20:57:26.420Z,100818.38
2023-04-01T21:00:18.870Z,100822.61
2023-04-01T21:03:02.072Z,100824.98
2023-04-01T21:05:51.428Z,100825.00
2023-04-01T21:08:46.207Z,100822.67
2023-04-01T21:11:32.844Z,100822.91
2023-04-01T21:14:34.971Z,100838.40
2023-04-01T21:17:15.607Z,100842.85
2023-04-01T21:20:17.090Z,100847.48
2023-04-01T21:22:53.960Z,100847.50
2023-04-01T21:25:30.540Z,100849.69
2023-04-01T21:28:10.760Z,100846.15
2023-04-01T21:30:44.863Z,100850.18
2023-04-01T21:33:51.392Z,100846.70
2023-04-01T21:36:40.804Z,100848.03
2023-04-01T21:39:53.292Z,100846.95
2023-04-01T21:43:13.904Z,100852.09
2023-04-01T21:46:19.359Z,100852.81
2023-04-01T21:48:50.744Z,100849.65
2023-04-01T21:51:56.510Z,100847.52
2023-04-01T21:55:02.092Z,100853.19
2023-04-01T21:58:11.877Z,100858.98
2023-04-01T22:00:43.621Z,100861.33
2023-04-01T22:03:39.542Z,100863.75
2023-04-01T22:06:20.942Z,100856.11
2023-04-01T22:09:08.196Z,100872.77
2023-04-01T22:12:19.339Z,100874.51
2023-04-01T22:15:01.181Z,100878.19
2023-04-01T22:17:32.154Z,100886.11
2023-04-01T22:20:24.504Z,100890.98
2023-04-01T22:23:14.491Z,100893.44
2023-04-01T22:25:51.312Z,100892.41
2023-04-01T22:28:29.040Z,100896.31
2023-04-01T22:31:01.861Z,100899.17
2023-04-01T22:33:45.024Z,100903.20
2023-04-01T22:36:27.695Z,100906.65
2023-04-01T22:39:02.118Z,100909.17
2023-04-01T22:41:51.891Z,100910.88
2023-04-01T22:45:05.566Z,100912.59
2023-04-01T22:47:40.405Z,100914.39
2023-04-01T22:50:23.996Z,100917.79
2023-04-01T22:53:14.805Z,100917.71
2023-04-01T22:55:53.075Z,100916.54
2023-04-01T22:58:32.023Z,100921.58
2023-04-01T23:01:06.896Z,100924.81
2023-04-01T23:03:41.889Z,100928.68
2023-04-01T23:06:36.728Z,100927.66
2023-04-01T23:09:27.977Z,100925.96
2023-04-01T23:12:08.445Z,100931.27
2023-04-01T23:14:47.684Z,100934.88
2023-04-01T23:17:22.039Z,100934.28
2023-04-01T23:20:16.335Z,100935.33
2023-04-01T23:23:21.214Z,100936.70
2023-04-01T23:25:52.496Z,100936.16
2023-04-01T23:28:40.402Z,100941.77
2023-04-01T23:31:26.913Z,100938.06
2023-04-01T23:34:01.870Z,100941.17
2023-04-01T23:36:32.307Z,100944.21
2023-04-01T23:39:07.156Z,100948.61
2023-04-01T23:41:36.241Z,100958.71
2023-04-01T23:44:10.680Z,100959.82
2023-04-01T23:46:41.670Z,100961.89
2023-04-01T23:49:35.152Z,100966.20
2023-04-01T23:52:12.947Z,100971.34
2023-04-01T23:55:00.949Z,100972.42
2023-04-01T23:57:32.965Z,100975.97
